sensor_id;sensor_type;location;lat;lon;timestamp;pressure;altitude;pressure_sealevel;temperature;humidity
19447;BME280;9862;49.462;11.054;2023-03-01T00:00:08;98985.44;;;3.80;99.83
19447;BME280;9862;49.462;11.054;2023-03-01T00:02:35;98981.28;;;3.78;100.00
19447;BME280;9862;49.462;11.054;2023-03-01T00:05:02;98981.53;;;3.74;100.00
19447;BME280;9862;49.462;11.054;2023-03-01T00:07:30;98986.81;;;3.74;100.00
19447;BME280;9862;49.462;11.054;2023-03-01T00:09:57;98984.91;;;3.67;100.00
19447;BME280;9862;49.462;11.054;2023-03-01T00:12:24;98981.72;;;3.63;100.00
19447;BME280;9862;49.462;11.054;2023-03-01T00:14:50;98982.97;;;3.69;100.00
19447;BME280;9862;49.462;11.054;2023-03-01T00:17:17;98983.50;;;3.72;100.00
19447;BME280;9862;49.462;11.054;2023-03-01T00:19:43;98987.50;;;3.86;99.65
19447;BME280;9862;49.462;11.054;2023-03-01T00:22:10;98992.22;;;3.73;100.00
19447;BME280;9862;49.462;11.054;2023-03-01T00:24:38;98983.50;;;3.72;100.00
19447;BME280;9862;49.462;11.054;2023-03-01T00:27:04;98987.13;;;3.62;100.00
19447;BME280;9862;49.462;11.054;2023-03-01T00:29:31;98984.91;;;3.57;100.00
19447;BME280;9862;49.462;11.054;2023-03-01T00:31:57;98982.97;;;3.69;100.00
19447;BME280;9862;49.462;11.054;2023-03-01T00:34:24;98979.66;;;3.57;100.00
19447;BME280;9862;49.462;11.054;2023-03-01T00:36:50;98982.16;;;3.59;100.00
19447;BME280;9862;49.462;11.054;2023-03-01T00:39:17;98971.06;;;3.55;100.00
19447;BME280;9862;49.462;11.054;2023-03-01T00:41:45;98970.22;;;3.55;100.00
19447;BME280;9862;49.462;11.054;2023-03-01T00:44:11;98985.03;;;3.56;100.00
19447;BME280;9862;49.462;11.054;2023-03-01T00:46:38;98975.63;;;3.63;100.00
19447;BME280;9862;49.462;11.054;2023-03-01T00:49:05;98984.75;;;3.68;100.00
19447;BME280;9862;49.462;11.054;2023-03-01T00:51:32;98979.22;;;3.71;100.00
19447;BME280;9862;49.462;11.054;2023-03-01T00:54:00;98973.91;;;3.81;100.00
19447;BME280;9862;49.462;11.054;2023-03-01T00:56:27;98971.44;;;3.80;100.00
19447;BME280;9862;49.462;11.054;2023-03-01T00:58:56;98964.66;;;3.77;100.00
19447;BME280;9862;49.462;11.054;2023-03-01T01:01:24;98955.63;;;3.80;100.00
19447;BME280;9862;49.462;11.054;2023-03-01T01:03:54;98945.78;;;3.82;100.00
19447;BME280;9862;49.462;11.054;2023-03-01T01:06:22;98936.50;;;3.87;99.56
19447;BME280;9862;49.462;11.054;2023-03-01T01:08:50;98950.53;;;3.78;100.00
19447;BME280;9862;49.462;11.054;2023-03-01T01:11:17;98944.16;;;3.71;100.00
19447;BME280;9862;49.462;11.054;2023-03-01T01:13:45;98946.25;;;3.67;100.00
19447;BME280;9862;49.462;11.054;2023-03-01T01:16:13;98942.09;;;3.65;100.00
19447;BME280;9862;49.462;11.054;2023-03-01T01:18:40;98940.72;;;3.61;100.00
19447;BME280;9862;49.462;11.054;2023-03-01T01:21:08;98941.41;;;3.63;100.00
19447;BME280;9862;49.462;11.054;2023-03-01T01:23:35;98922.28;;;3.61;100.00
19447;BME280;9862;49.462;11.054;2023-03-01T01:26:06;98924.63;;;3.64;100.00
19447;BME280;9862;49.462;11.054;2023-03-01T01:28:33;98926.13;;;3.66;100.00
19447;BME280;9862;49.462;11.054;2023-03-01T01:30:59;98926.59;;;3.62;100.00
19447;BME280;9862;49.462;11.054;2023-03-01T01:33:27;98919.22;;;3.65;100.00
19447;BME280;9862;49.462;11.054;2023-03-01T01:35:54;98917.41;;;3.66;100.00
19447;BME280;9862;49.462;11.054;2023-03-01T01:38:21;98912.03;;;3.67;100.00
19447;BME280;9862;49.462;11.054;2023-03-01T01:40:48;98917.69;;;3.72;100.00
19447;BME280;9862;49.462;11.054;2023-03-01T01:43:19;98912.88;;;3.68;100.00
19447;BME280;9862;49.462;11.054;2023-03-01T01:45:46;98900.69;;;3.67;100.00
19447;BME280;9862;49.462;11.054;2023-03-01T01:48:14;98908.44;;;3.68;100.00
19447;BME280;9862;49.462;11.054;2023-03-01T01:50:44;98900.09;;;3.73;100.00
19447;BME280;9862;49.462;11.054;2023-03-01T01:53:15;98892.75;;;3.77;100.00
19447;BME280;9862;49.462;11.054;2023-03-01T01:55:47;98891.31;;;3.82;100.00
19447;BME280;9862;49.462;11.054;2023-03-01T01:58:17;98895.91;;;3.80;100.00
19447;BME280;9862;49.462;11.054;2023-03-01T02:00:45;98886.53;;;3.68;99.25
19447;BME280;9862;49.462;11.054;2023-03-01T02:03:14;98890.19;;;3.57;100.00
19447;BME280;9862;49.462;11.054;2023-03-01T02:05:47;98891.41;;;3.63;100.00
19447;BME280;9862;49.462;11.054;2023-03-01T02:08:20;98886.69;;;3.57;100.00
19447;BME280;9862;49.462;11.054;2023-03-01T02:10:48;98880.56;;;3.66;99.35
19447;BME280;9862;49.462;11.054;2023-03-01T02:13:15;98870.53;;;3.52;99.87
19447;BME280;9862;49.462;11.054;2023-03-01T02:15:42;98878.72;;;3.49;100.00
19447;BME280;9862;49.462;11.054;2023-03-01T02:18:12;98871.78;;;3.48;100.00
19447;BME280;9862;49.462;11.054;2023-03-01T02:20:50;98867.75;;;3.43;100.00
19447;BME280;9862;49.462;11.054;2023-03-01T02:23:20;98861.69;;;3.43;100.00
19447;BME280;9862;49.462;11.054;2023-03-01T02:25:51;98867.47;;;3.47;100.00
19447;BME280;9862;49.462;11.054;2023-03-01T02:28:30;98863.34;;;3.44;100.00
19447;BME280;9862;49.462;11.054;2023-03-01T02:30:56;98851.69;;;3.47;100.00
19447;BME280;9862;49.462;11.054;2023-03-01T02:33:41;98859.34;;;3.40;100.00
19447;BME280;9862;49.462;11.054;2023-03-01T02:36:12;98851.69;;;3.47;100.00
19447;BME280;9862;49.462;11.054;2023-03-01T02:38:47;98843.63;;;3.58;100.00
19447;BME280;9862;49.462;11.054;2023-03-01T02:41:16;98856.38;;;3.53;100.00
19447;BME280;9862;49.462;11.054;2023-03-01T02:43:45;98849.47;;;3.52;100.00
19447;BME280;9862;49.462;11.054;2023-03-01T02:46:15;98844.50;;;3.49;100.00
19447;BME280;9862;49.462;11.054;2023-03-01T02:48:44;98841.69;;;3.60;100.00
19447;BME280;9862;49.462;11.054;2023-03-01T02:51:21;98841.56;;;3.52;100.00
19447;BME280;9862;49.462;11.054;2023-03-01T02:53:59;98845.84;;;3.53;100.00
19447;BME280;9862;49.462;11.054;2023-03-01T02:56:30;98834.22;;;3.55;100.00
19447;BME280;9862;49.462;11.054;2023-03-01T02:58:58;98836.00;;;3.55;100.00
19447;BME280;9862;49.462;11.054;2023-03-01T03:01:27;98839.47;;;3.55;99.77
19447;BME280;9862;49.462;11.054;2023-03-01T03:04:02;98832.69;;;3.53;100.00
19447;BME280;9862;49.462;11.054;2023-03-01T03:06:29;98841.28;;;3.55;100.00
19447;BME280;9862;49.462;11.054;2023-03-01T03:08:55;98835.34;;;3.53;100.00
19447;BME280;9862;49.462;11.054;2023-03-01T03:11:22;98839.25;;;3.49;100.00
19447;BME280;9862;49.462;11.054;2023-03-01T03:13:49;98829.06;;;3.63;98.18
19447;BME280;9862;49.462;11.054;2023-03-01T03:16:19;98831.88;;;3.52;98.32
19447;BME280;9862;49.462;11.054;2023-03-01T03:18:47;98825.28;;;3.38;100.00
19447;BME280;9862;49.462;11.054;2023-03-01T03:21:15;98820.69;;;3.40;100.00
19447;BME280;9862;49.462;11.054;2023-03-01T03:23:42;98822.34;;;3.41;100.00
19447;BME280;9862;49.462;11.054;2023-03-01T03:26:09;98825.97;;;3.40;100.00
19447;BME280;9862;49.462;11.054;2023-03-01T03:28:40;98828.16;;;3.45;100.00
19447;BME280;9862;49.462;11.054;2023-03-01T03:31:07;98821.47;;;3.60;100.00
19447;BME280;9862;49.462;11.054;2023-03-01T03:33:36;98815.78;;;3.55;100.00
19447;BME280;9862;49.462;11.054;2023-03-01T03:36:03;98823.16;;;3.52;100.00
19447;BME280;9862;49.462;11.054;2023-03-01T03:38:30;98816.91;;;3.53;100.00
19447;BME280;9862;49.462;11.054;2023-03-01T03:41:00;98816.75;;;3.54;100.00
19447;BME280;9862;49.462;11.054;2023-03-01T03:43:27;98820.06;;;3.56;100.00
19447;BME280;9862;49.462;11.054;2023-03-01T03:45:54;98814.81;;;3.56;100.00
19447;BME280;9862;49.462;11.054;2023-03-01T03:48:22;98812.06;;;3.58;100.00
19447;BME280;9862;49.462;11.054;2023-03-01T03:50:52;98814.09;;;3.64;100.00
19447;BME280;9862;49.462;11.054;2023-03-01T03:53:19;98817.41;;;3.66;100.00
19447;BME280;9862;49.462;11.054;2023-03-01T03:55:46;98819.75;;;3.69;99.08
19447;BME280;9862;49.462;11.054;2023-03-01T03:58:15;98813.38;;;3.71;97.29
19447;BME280;9862;49.462;11.054;2023-03-01T04:00:46;98816.00;;;3.71;97.75
19447;BME280;9862;49.462;11.054;2023-03-01T04:03:14;98810.34;;;3.66;95.82
19447;BME280;9862;49.462;11.054;2023-03-01T04:05:41;98814.69;;;3.58;98.04
19447;BME280;9862;49.462;11.054;2023-03-01T04:08:10;98807.63;;;3.58;98.88
19447;BME280;9862;49.462;11.054;2023-03-01T04:10:38;98815.94;;;3.54;98.69
19447;BME280;9862;49.462;11.054;2023-03-01T04:13:06;98820.53;;;3.52;100.00
19447;BME280;9862;49.462;11.054;2023-03-01T04:15:33;98817.88;;;3.52;100.00
19447;BME280;9862;49.462;11.054;2023-03-01T04:18:00;98828.41;;;3.52;100.00
19447;BME280;9862;49.462;11.054;2023-03-01T04:20:30;98828.94;;;3.55;100.00
19447;BME280;9862;49.462;11.054;2023-03-01T04:22:58;98832.13;;;3.59;100.00
19447;BME280;9862;49.462;11.054;2023-03-01T04:25:26;98823.94;;;3.62;98.78
19447;BME280;9862;49.462;11.054;2023-03-01T04:27:53;98827.03;;;3.57;99.44
19447;BME280;9862;49.462;11.054;2023-03-01T04:30:19;98827.16;;;3.56;99.37
19447;BME280;9862;49.462;11.054;2023-03-01T04:32:50;98816.63;;;3.56;100.00
19447;BME280;9862;49.462;11.054;2023-03-01T04:35:17;98822.59;;;3.58;99.16
19447;BME280;9862;49.462;11.054;2023-03-01T04:37:43;98834.22;;;3.55;98.83
19447;BME280;9862;49.462;11.054;2023-03-01T04:40:10;98831.56;;;3.55;99.70
19447;BME280;9862;49.462;11.054;2023-03-01T04:42:42;98825.22;;;3.58;97.12
19447;BME280;9862;49.462;11.054;2023-03-01T04:45:10;98826.47;;;3.54;95.36
19447;BME280;9862;49.462;11.054;2023-03-01T04:47:38;98835.22;;;3.44;97.58
19447;BME280;9862;49.462;11.054;2023-03-01T04:50:06;98827.75;;;3.50;97.82
19447;BME280;9862;49.462;11.054;2023-03-01T04:52:33;98826.88;;;3.59;99.32
19447;BME280;9862;49.462;11.054;2023-03-01T04:55:00;98825.22;;;3.58;98.10
19447;BME280;9862;49.462;11.054;2023-03-01T04:57:26;98823.00;;;3.53;98.39
19447;BME280;9862;49.462;11.054;2023-03-01T04:59:54;98822.31;;;3.51;98.90
19447;BME280;9862;49.462;11.054;2023-03-01T05:02:21;98818.41;;;3.55;98.59
19447;BME280;9862;49.462;11.054;2023-03-01T05:04:48;98825.47;;;3.55;98.14
19447;BME280;9862;49.462;11.054;2023-03-01T05:07:14;98830.06;;;3.53;96.88
19447;BME280;9862;49.462;11.054;2023-03-01T05:09:44;98821.50;;;3.51;97.98
19447;BME280;9862;49.462;11.054;2023-03-01T05:12:11;98821.50;;;3.51;97.49
19447;BME280;9862;49.462;11.054;2023-03-01T05:14:37;98817.97;;;3.69;95.68
19447;BME280;9862;49.462;11.054;2023-03-01T05:17:06;98819.75;;;3.69;94.48
19447;BME280;9862;49.462;11.054;2023-03-01T05:19:33;98822.31;;;3.51;94.04
19447;BME280;9862;49.462;11.054;2023-03-01T05:21:59;98819.31;;;3.36;95.26
19447;BME280;9862;49.462;11.054;2023-03-01T05:24:31;98820.97;;;3.37;96.70
19447;BME280;9862;49.462;11.054;2023-03-01T05:26:58;98816.00;;;3.34;96.41
19447;BME280;9862;49.462;11.054;2023-03-01T05:29:27;98828.53;;;3.13;97.37
19447;BME280;9862;49.462;11.054;2023-03-01T05:31:54;98819.16;;;2.91;100.00
19447;BME280;9862;49.462;11.054;2023-03-01T05:34:24;98826.09;;;2.73;100.00
19447;BME280;9862;49.462;11.054;2023-03-01T05:36:51;98827.47;;;2.67;100.00
19447;BME280;9862;49.462;11.054;2023-03-01T05:39:19;98828.03;;;2.61;100.00
19447;BME280;9862;49.462;11.054;2023-03-01T05:41:46;98818.47;;;2.60;100.00
19447;BME280;9862;49.462;11.054;2023-03-01T05:44:13;98819.88;;;2.45;100.00
19447;BME280;9862;49.462;11.054;2023-03-01T05:46:39;98818.22;;;2.44;100.00
19447;BME280;9862;49.462;11.054;2023-03-01T05:49:05;98807.28;;;2.39;100.00
19447;BME280;9862;49.462;11.054;2023-03-01T05:51:33;98806.44;;;2.48;100.00
19447;BME280;9862;49.462;11.054;2023-03-01T05:54:00;98809.75;;;2.50;100.00
19447;BME280;9862;49.462;11.054;2023-03-01T05:56:26;98805.75;;;2.46;100.00
19447;BME280;9862;49.462;11.054;2023-03-01T05:58:54;98806.16;;;2.51;100.00
19447;BME280;9862;49.462;11.054;2023-03-01T06:01:21;98807.84;;;2.52;100.00
19447;BME280;9862;49.462;11.054;2023-03-01T06:03:47;98808.94;;;2.69;100.00
19447;BME280;9862;49.462;11.054;2023-03-01T06:06:14;98808.09;;;2.68;100.00
19447;BME280;9862;49.462;11.054;2023-03-01T06:08:41;98814.91;;;2.61;100.00
19447;BME280;9862;49.462;11.054;2023-03-01T06:11:08;98812.81;;;2.65;100.00
19447;BME280;9862;49.462;11.054;2023-03-01T06:13:34;98809.50;;;2.63;100.00
19447;BME280;9862;49.462;11.054;2023-03-01T06:16:04;98803.13;;;2.65;100.00
19447;BME280;9862;49.462;11.054;2023-03-01T06:18:31;98804.09;;;2.74;100.00
19447;BME280;9862;49.462;11.054;2023-03-01T06:20:57;98803.66;;;2.69;100.00
19447;BME280;9862;49.462;11.054;2023-03-01T06:23:24;98800.06;;;2.60;100.00
19447;BME280;9862;49.462;11.054;2023-03-01T06:25:52;98801.19;;;2.57;100.00
19447;BME280;9862;49.462;11.054;2023-03-01T06:28:19;98805.34;;;2.60;100.00
19447;BME280;9862;49.462;11.054;2023-03-01T06:30:46;98802.59;;;2.71;100.00
19447;BME280;9862;49.462;11.054;2023-03-01T06:33:14;98794.69;;;2.71;100.00
19447;BME280;9862;49.462;11.054;2023-03-01T06:35:40;98799.66;;;2.74;100.00
19447;BME280;9862;49.462;11.054;2023-03-01T06:38:07;98798.41;;;2.69;100.00
19447;BME280;9862;49.462;11.054;2023-03-01T06:40:33;98802.16;;;2.76;100.00
19447;BME280;9862;49.462;11.054;2023-03-01T06:43:02;98800.66;;;2.73;100.00
19447;BME280;9862;49.462;11.054;2023-03-01T06:45:29;98799.97;;;2.71;100.00
19447;BME280;9862;49.462;11.054;2023-03-01T06:48:01;98799.22;;;2.79;100.00
19447;BME280;9862;49.462;11.054;2023-03-01T06:50:29;98793.41;;;2.95;100.00
19447;BME280;9862;49.462;11.054;2023-03-01T06:52:56;98790.47;;;3.07;100.00
19447;BME280;9862;49.462;11.054;2023-03-01T06:55:22;98791.72;;;3.13;100.00
19447;BME280;9862;49.462;11.054;2023-03-01T06:57:54;98798.44;;;3.25;100.00
19447;BME280;9862;49.462;11.054;2023-03-01T07:00:24;98797.81;;;3.04;100.00
19447;BME280;9862;49.462;11.054;2023-03-01T07:02:51;98799.31;;;3.06;100.00
19447;BME280;9862;49.462;11.054;2023-03-01T07:05:18;98791.16;;;3.19;100.00
19447;BME280;9862;49.462;11.054;2023-03-01T07:07:44;98782.53;;;3.27;100.00
19447;BME280;9862;49.462;11.054;2023-03-01T07:10:12;98791.91;;;3.39;100.00
19447;BME280;9862;49.462;11.054;2023-03-01T07:12:38;98784.75;;;3.59;100.00
19447;BME280;9862;49.462;11.054;2023-03-01T07:15:09;98784.34;;;3.54;100.00
19447;BME280;9862;49.462;11.054;2023-03-01T07:17:37;98786.53;;;3.68;99.78
19447;BME280;9862;49.462;11.054;2023-03-01T07:20:04;98778.75;;;3.66;98.62
19447;BME280;9862;49.462;11.054;2023-03-01T07:22:31;98767.13;;;3.69;98.47
19447;BME280;9862;49.462;11.054;2023-03-01T07:24:58;98774.03;;;3.70;100.00
19447;BME280;9862;49.462;11.054;2023-03-01T07:27:24;98770.38;;;3.53;100.00
19447;BME280;9862;49.462;11.054;2023-03-01T07:29:51;98769.59;;;3.70;98.97
19447;BME280;9862;49.462;11.054;2023-03-01T07:32:17;98761.31;;;3.65;96.97
19447;BME280;9862;49.462;11.054;2023-03-01T07:34:45;98761.66;;;3.53;99.63
19447;BME280;9862;49.462;11.054;2023-03-01T07:37:12;98765.56;;;3.49;100.00
19447;BME280;9862;49.462;11.054;2023-03-01T07:39:38;98762.81;;;3.40;99.33
19447;BME280;9862;49.462;11.054;2023-03-01T07:42:05;98768.91;;;3.41;100.00
19447;BME280;9862;49.462;11.054;2023-03-01T07:44:31;98769.53;;;3.53;98.67
19447;BME280;9862;49.462;11.054;2023-03-01T07:46:58;98753.09;;;3.51;99.23
19447;BME280;9862;49.462;11.054;2023-03-01T07:49:25;98758.75;;;3.46;100.00
19447;BME280;9862;49.462;11.054;2023-03-01T07:51:54;98756.28;;;3.44;100.00
19447;BME280;9862;49.462;11.054;2023-03-01T07:54:21;98750.81;;;3.56;100.00
19447;BME280;9862;49.462;11.054;2023-03-01T07:56:47;98747.22;;;3.57;100.00
19447;BME280;9862;49.462;11.054;2023-03-01T07:59:14;98739.75;;;3.80;100.00
19447;BME280;9862;49.462;11.054;2023-03-01T08:01:41;98747.25;;;3.74;97.20
19447;BME280;9862;49.462;11.054;2023-03-01T08:04:07;98745.75;;;3.72;98.33
19447;BME280;9862;49.462;11.054;2023-03-01T08:06:35;98748.84;;;3.85;97.67
19447;BME280;9862;49.462;11.054;2023-03-01T08:09:03;98753.59;;;3.82;97.38
19447;BME280;9862;49.462;11.054;2023-03-01T08:11:30;98754.28;;;3.84;98.27
19447;BME280;9862;49.462;11.054;2023-03-01T08:13:56;98742.66;;;3.86;96.97
19447;BME280;9862;49.462;11.054;2023-03-01T08:16:23;98754.28;;;3.84;97.77
19447;BME280;9862;49.462;11.054;2023-03-01T08:18:50;98753.44;;;3.83;98.10
19447;BME280;9862;49.462;11.054;2023-03-01T08:21:17;98751.13;;;3.80;96.03
19447;BME280;9862;49.462;11.054;2023-03-01T08:23:44;98741.94;;;3.84;97.65
19447;BME280;9862;49.462;11.054;2023-03-01T08:26:14;98737.66;;;3.83;97.70
19447;BME280;9862;49.462;11.054;2023-03-01T08:28:42;98737.66;;;3.83;99.55
19447;BME280;9862;49.462;11.054;2023-03-01T08:31:17;98735.94;;;3.92;94.64
19447;BME280;9862;49.462;11.054;2023-03-01T08:33:44;98724.97;;;3.96;95.23
19447;BME280;9862;49.462;11.054;2023-03-01T08:36:16;98718.19;;;4.12;95.44
19447;BME280;9862;49.462;11.054;2023-03-01T08:38:42;98722.19;;;4.16;96.43
19447;BME280;9862;49.462;11.054;2023-03-01T08:41:09;98714.81;;;4.37;95.36
19447;BME280;9862;49.462;11.054;2023-03-01T08:43:37;98718.09;;;4.39;93.97
19447;BME280;9862;49.462;11.054;2023-03-01T08:46:04;98713.34;;;4.43;90.30
19447;BME280;9862;49.462;11.054;2023-03-01T08:48:30;98715.84;;;4.44;91.25
19447;BME280;9862;49.462;11.054;2023-03-01T08:51:07;98705.97;;;4.46;91.89
19447;BME280;9862;49.462;11.054;2023-03-01T08:53:34;98699.72;;;4.47;90.09
19447;BME280;9862;49.462;11.054;2023-03-01T08:56:00;98710.88;;;4.41;90.02
19447;BME280;9862;49.462;11.054;2023-03-01T08:58:28;98714.41;;;4.50;90.10
19447;BME280;9862;49.462;11.054;2023-03-01T09:00:56;98709.34;;;4.56;90.69
19447;BME280;9862;49.462;11.054;2023-03-01T09:03:23;98705.13;;;4.64;91.75
19447;BME280;9862;49.462;11.054;2023-03-01T09:05:50;98701.53;;;4.73;89.89
19447;BME280;9862;49.462;11.054;2023-03-01T09:08:17;98697.72;;;4.93;88.26
19447;BME280;9862;49.462;11.054;2023-03-01T09:10:44;98693.72;;;4.89;88.19
19447;BME280;9862;49.462;11.054;2023-03-01T09:13:11;98687.31;;;4.92;88.60
19447;BME280;9862;49.462;11.054;2023-03-01T09:15:38;98687.53;;;4.98;88.54
19447;BME280;9862;49.462;11.054;2023-03-01T09:18:06;98688.06;;;5.10;86.22
19447;BME280;9862;49.462;11.054;2023-03-01T09:20:32;98689.94;;;5.17;84.55
19447;BME280;9862;49.462;11.054;2023-03-01T09:22:59;98688.44;;;5.15;85.05
19447;BME280;9862;49.462;11.054;2023-03-01T09:25:26;98685.31;;;5.20;84.72
19447;BME280;9862;49.462;11.054;2023-03-01T09:27:53;98673.84;;;5.37;83.15
19447;BME280;9862;49.462;11.054;2023-03-01T09:30:21;98674.84;;;5.36;79.40
19447;BME280;9862;49.462;11.054;2023-03-01T09:32:47;98676.16;;;5.40;79.06
19447;BME280;9862;49.462;11.054;2023-03-01T09:35:15;98677.81;;;5.33;79.45
19447;BME280;9862;49.462;11.054;2023-03-01T09:37:42;98671.88;;;5.39;81.34
19447;BME280;9862;49.462;11.054;2023-03-01T09:40:14;98681.00;;;5.53;80.00
19447;BME280;9862;49.462;11.054;2023-03-01T09:42:50;98673.94;;;5.61;77.59
19447;BME280;9862;49.462;11.054;2023-03-01T09:45:25;98669.94;;;5.57;78.23
19447;BME280;9862;49.462;11.054;2023-03-01T09:47:52;98669.28;;;5.55;77.94
19447;BME280;9862;49.462;11.054;2023-03-01T09:50:21;98665.03;;;5.62;78.80
19447;BME280;9862;49.462;11.054;2023-03-01T09:52:54;98663.03;;;5.64;79.22
19447;BME280;9862;49.462;11.054;2023-03-01T09:55:30;98666.34;;;5.66;78.11
19447;BME280;9862;49.462;11.054;2023-03-01T09:58:00;98669.00;;;5.74;78.13
19447;BME280;9862;49.462;11.054;2023-03-01T10:00:37;98669.69;;;5.85;77.35
19447;BME280;9862;49.462;11.054;2023-03-01T10:03:14;98653.22;;;5.91;76.20
19447;BME280;9862;49.462;11.054;2023-03-01T10:06:01;98649.03;;;5.88;75.92
19447;BME280;9862;49.462;11.054;2023-03-01T10:08:34;98658.50;;;5.91;72.85
19447;BME280;9862;49.462;11.054;2023-03-01T10:11:04;98661.97;;;5.91;73.45
19447;BME280;9862;49.462;11.054;2023-03-01T10:13:37;98661.81;;;6.09;72.75
19447;BME280;9862;49.462;11.054;2023-03-01T10:16:13;98643.63;;;6.06;71.36
19447;BME280;9862;49.462;11.054;2023-03-01T10:18:40;98645.97;;;6.01;70.08
19447;BME280;9862;49.462;11.054;2023-03-01T10:21:14;98650.25;;;5.94;71.82
19447;BME280;9862;49.462;11.054;2023-03-01T10:23:42;98639.69;;;6.10;72.73
19447;BME280;9862;49.462;11.054;2023-03-01T10:26:19;98646.28;;;6.06;70.95
19447;BME280;9862;49.462;11.054;2023-03-01T10:28:59;98636.53;;;6.07;70.94
19447;BME280;9862;49.462;11.054;2023-03-01T10:31:44;98637.06;;;6.10;72.37
19447;BME280;9862;49.462;11.054;2023-03-01T10:34:14;98636.72;;;6.13;72.19
19447;BME280;9862;49.462;11.054;2023-03-01T10:36:44;98642.47;;;6.17;73.19
19447;BME280;9862;49.462;11.054;2023-03-01T10:39:14;98632.09;;;6.31;70.82
19447;BME280;9862;49.462;11.054;2023-03-01T10:42:02;98630.44;;;6.39;68.84
19447;BME280;9862;49.462;11.054;2023-03-01T10:44:41;98617.03;;;6.40;68.85
19447;BME280;9862;49.462;11.054;2023-03-01T10:47:14;98619.50;;;6.42;70.90
19447;BME280;9862;49.462;11.054;2023-03-01T10:49:52;98613.72;;;6.46;70.46
19447;BME280;9862;49.462;11.054;2023-03-01T10:52:22;98612.56;;;6.49;70.69
19447;BME280;9862;49.462;11.054;2023-03-01T10:54:54;98610.88;;;6.56;71.02
19447;BME280;9862;49.462;11.054;2023-03-01T10:57:36;98590.03;;;6.69;70.35
19447;BME280;9862;49.462;11.054;2023-03-01T11:00:23;98583.72;;;6.78;69.10
19447;BME280;9862;49.462;11.054;2023-03-01T11:03:03;98575.09;;;6.84;67.69
19447;BME280;9862;49.462;11.054;2023-03-01T11:05:30;98569.47;;;6.87;68.21
19447;BME280;9862;49.462;11.054;2023-03-01T11:08:02;98567.16;;;6.84;69.23
19447;BME280;9862;49.462;11.054;2023-03-01T11:10:44;98555.91;;;6.91;67.74
19447;BME280;9862;49.462;11.054;2023-03-01T11:13:15;98552.25;;;6.92;66.84
19447;BME280;9862;49.462;11.054;2023-03-01T11:15:43;98545.09;;;7.00;67.14
19447;BME280;9862;49.462;11.054;2023-03-01T11:18:31;98541.09;;;7.04;66.43
19447;BME280;9862;49.462;11.054;2023-03-01T11:20:59;98539.34;;;6.97;67.37
19447;BME280;9862;49.462;11.054;2023-03-01T11:23:30;98532.31;;;7.12;68.08
19447;BME280;9862;49.462;11.054;2023-03-01T11:26:00;98528.09;;;7.26;64.60
19447;BME280;9862;49.462;11.054;2023-03-01T11:28:29;98528.78;;;7.20;63.83
19447;BME280;9862;49.462;11.054;2023-03-01T11:30:58;98535.38;;;7.24;65.08
19447;BME280;9862;49.462;11.054;2023-03-01T11:33:35;98534.53;;;7.23;65.85
19447;BME280;9862;49.462;11.054;2023-03-01T11:36:07;98528.69;;;7.36;63.55
19447;BME280;9862;49.462;11.054;2023-03-01T11:38:36;98518.19;;;7.42;64.03
19447;BME280;9862;49.462;11.054;2023-03-01T11:41:06;98523.00;;;7.47;62.31
19447;BME280;9862;49.462;11.054;2023-03-01T11:43:40;98514.84;;;7.49;61.43
19447;BME280;9862;49.462;11.054;2023-03-01T11:46:47;98508.28;;;7.44;62.46
19447;BME280;9862;49.462;11.054;2023-03-01T11:49:37;98500.25;;;7.53;63.16
19447;BME280;9862;49.462;11.054;2023-03-01T11:52:15;98493.25;;;7.60;61.82
19447;BME280;9862;49.462;11.054;2023-03-01T11:54:55;98496.66;;;7.68;63.68
19447;BME280;9862;49.462;11.054;2023-03-01T11:57:40;98483.53;;;7.90;62.59
19447;BME280;9862;49.462;11.054;2023-03-01T12:00:26;98479.31;;;7.81;61.12
19447;BME280;9862;49.462;11.054;2023-03-01T12:03:23;98470.56;;;7.80;62.41
19447;BME280;9862;49.462;11.054;2023-03-01T12:06:10;98474.59;;;7.91;62.78
19447;BME280;9862;49.462;11.054;2023-03-01T12:08:42;98462.19;;;8.06;60.63
19447;BME280;9862;49.462;11.054;2023-03-01T12:11:29;98460.91;;;8.02;61.62
19447;BME280;9862;49.462;11.054;2023-03-01T12:17:15;98451.97;;;8.03;59.54
19447;BME280;9862;49.462;11.054;2023-03-01T12:19:56;98445.00;;;8.02;60.99
19447;BME280;9862;49.462;11.054;2023-03-01T12:22:30;98455.69;;;8.09;60.77
19447;BME280;9862;49.462;11.054;2023-03-01T12:25:25;98447.22;;;8.13;61.76
19447;BME280;9862;49.462;11.054;2023-03-01T12:28:15;98449.94;;;8.20;60.67
19447;BME280;9862;49.462;11.054;2023-03-01T12:30:58;98446.13;;;8.22;60.95
19447;BME280;9862;49.462;11.054;2023-03-01T12:33:34;98427.38;;;8.24;61.24
19447;BME280;9862;49.462;11.054;2023-03-01T12:39:24;98420.22;;;8.39;59.43
19447;BME280;9862;49.462;11.054;2023-03-01T12:42:01;98426.75;;;8.37;59.89
19447;BME280;9862;49.462;11.054;2023-03-01T12:44:50;98418.31;;;8.48;61.37
19447;BME280;9862;49.462;11.054;2023-03-01T12:47:34;98410.19;;;8.49;61.13
19447;BME280;9862;49.462;11.054;2023-03-01T12:50:04;98406.78;;;8.55;61.51
19447;BME280;9862;49.462;11.054;2023-03-01T12:52:41;98406.66;;;8.64;61.35
19447;BME280;9862;49.462;11.054;2023-03-01T12:55:22;98404.66;;;8.66;62.70
19447;BME280;9862;49.462;11.054;2023-03-01T12:58:00;98395.84;;;8.80;62.14
19447;BME280;9862;49.462;11.054;2023-03-01T13:00:32;98396.69;;;8.87;62.88
19447;BME280;9862;49.462;11.054;2023-03-01T13:03:12;98392.34;;;8.79;63.21
19447;BME280;9862;49.462;11.054;2023-03-01T13:05:47;98386.47;;;8.84;62.05
19447;BME280;9862;49.462;11.054;2023-03-01T13:08:27;98399.50;;;8.79;61.53
19447;BME280;9862;49.462;11.054;2023-03-01T13:11:00;98394.41;;;8.99;62.23
19447;BME280;9862;49.462;11.054;2023-03-01T13:13:29;98388.44;;;8.97;62.78
19447;BME280;9862;49.462;11.054;2023-03-01T13:19:09;98377.75;;;9.11;63.18
19447;BME280;9862;49.462;11.054;2023-03-01T13:21:39;98379.19;;;9.14;63.16
19447;BME280;9862;49.462;11.054;2023-03-01T13:24:24;98373.38;;;9.25;64.06
19447;BME280;9862;49.462;11.054;2023-03-01T13:27:20;98379.22;;;9.42;62.56
19447;BME280;9862;49.462;11.054;2023-03-01T13:29:50;98368.47;;;9.50;61.81